Time;durP1;ratioP1;P1;durP2;ratioP2;P2;SDS_P1;SDS_P2;PMS_P1;PMS_P2;Temp;Humidity;BMP_temperature;BMP_pressure;BME280_temperature;BME280_humidity;BME280_pressure;Samples;Min_cycle;Max_cycle;Signal;HPM_P1;HPM_P2
2023/12/30 00:01:59;;;;;;;2.50;1.50;;;;;;;10.63;88.82;99467.50;180146;1259;57453;-65
2023/12/30 00:06:03;;;;;;;2.10;1.60;;;;;;;10.56;88.96;99468.71;179989;1258;44277;-65
2023/12/30 00:10:09;;;;;;;2.00;1.60;;;;;;;10.48;89.15;99469.06;180099;1257;45961;-65
2023/12/30 00:14:13;;;;;;;1.80;1.20;;;;;;;10.48;89.73;99473.45;180040;1257;43606;-65
2023/12/30 00:18:17;;;;;;;2.30;1.70;;;;;;;10.47;89.85;99471.88;179937;1259;44876;-64
2023/12/30 00:22:20;;;;;;;1.60;1.20;;;;;;;10.44;89.94;99473.84;179890;1257;58864;-64
2023/12/30 00:26:26;;;;;;;1.50;1.40;;;;;;;10.48;90.03;99473.88;179942;1257;46231;-64
2023/12/30 00:30:33;;;;;;;1.60;1.10;;;;;;;10.52;89.50;99474.54;180202;1258;45311;-65
2023/12/30 00:34:36;;;;;;;3.20;1.80;;;;;;;10.53;89.22;99471.25;180143;1262;45951;-65
2023/12/30 00:38:40;;;;;;;5.10;1.40;;;;;;;10.47;89.40;99471.98;179962;1257;43596;-64
2023/12/30 00:42:43;;;;;;;2.30;1.50;;;;;;;10.41;89.53;99470.44;180103;1257;59604;-64
2023/12/30 00:46:46;;;;;;;2.70;1.40;;;;;;;10.35;89.99;99470.02;179998;1257;44371;-64
2023/12/30 00:50:50;;;;;;;1.30;1.20;;;;;;;10.29;90.46;99469.04;180084;1257;45862;-65
2023/12/30 00:55:00;;;;;;;1.50;1.00;;;;;;;10.24;90.76;99465.95;179923;1258;44516;-64
2023/12/30 00:59:04;;;;;;;1.20;1.10;;;;;;;10.22;90.95;99460.30;179902;1258;44639;-64
2023/12/30 01:03:08;;;;;;;4.70;1.80;;;;;;;10.24;91.07;99460.15;179774;1260;58427;-64
2023/12/30 01:07:13;;;;;;;1.70;1.40;;;;;;;10.28;90.74;99455.84;179832;1258;44932;-64
2023/12/30 01:11:19;;;;;;;2.50;1.40;;;;;;;10.26;90.07;99449.85;179928;1258;45943;-65
2023/12/30 01:15:22;;;;;;;1.40;1.30;;;;;;;10.18;90.33;99448.24;179755;1259;45008;-65
2023/12/30 01:20:19;;;;;;;1.40;1.30;;;;;;;10.13;90.65;99441.20;180057;1257;45993;-65
2023/12/30 01:24:23;;;;;;;3.10;1.40;;;;;;;10.05;90.99;99443.58;180048;1257;58449;-64
2023/12/30 01:28:27;;;;;;;1.70;1.30;;;;;;;9.98;91.58;99452.20;180090;1257;45897;-65
2023/12/30 01:32:32;;;;;;;1.40;1.30;;;;;;;9.87;92.34;99455.38;180142;1260;43781;-65
2023/12/30 01:36:36;;;;;;;1.10;1.00;;;;;;;9.82;92.74;99457.70;180129;1258;45995;-64
2023/12/30 01:40:45;;;;;;;1.30;1.20;;;;;;;9.85;92.90;99459.28;179932;1257;45910;-64
2023/12/30 01:44:49;;;;;;;2.50;1.20;;;;;;;9.91;92.95;99461.23;180046;1257;58174;-65
2023/12/30 01:48:52;;;;;;;3.00;1.20;;;;;;;10.01;92.21;99452.95;180141;1257;44752;-64
2023/12/30 01:53:32;;;;;;;1.80;1.60;;;;;;;10.15;91.61;99447.66;180000;1257;43959;-64
2023/12/30 01:57:36;;;;;;;1.10;1.00;;;;;;;10.24;90.56;99432.98;180014;1257;44815;-64
2023/12/30 02:02:08;;;;;;;0.50;0.40;;;;;;;10.27;89.91;99425.25;180188;1257;46015;-64
2023/12/30 02:06:11;;;;;;;2.50;1.00;;;;;;;10.37;87.95;99427.15;180165;1257;58221;-65
2023/12/30 02:10:15;;;;;;;1.50;0.80;;;;;;;10.48;87.60;99431.00;180134;1257;45935;-65
2023/12/30 02:14:36;;;;;;;3.00;1.70;;;;;;;10.55;87.61;99426.35;180003;1257;43772;-64
2023/12/30 02:18:40;;;;;;;1.90;1.50;;;;;;;10.59;87.45;99423.43;180098;1257;44702;-63
2023/12/30 02:22:48;;;;;;;1.90;0.80;;;;;;;10.61;87.58;99411.83;180160;1259;46489;-64
2023/12/30 02:26:51;;;;;;;1.10;0.90;;;;;;;10.55;87.02;99415.04;180019;1257;59278;-64
2023/12/30 02:30:55;;;;;;;2.80;1.00;;;;;;;10.44;87.39;99422.80;180077;1258;45832;-64
2023/12/30 02:34:58;;;;;;;1.90;1.00;;;;;;;10.35;89.09;99432.83;179977;1258;45913;-64
2023/12/30 02:39:02;;;;;;;2.20;1.00;;;;;;;10.33;88.81;99427.17;180080;1260;44789;-65
2023/12/30 02:43:05;;;;;;;3.00;0.80;;;;;;;10.26;88.41;99425.50;179936;1260;44605;-64
2023/12/30 02:47:11;;;;;;;0.60;0.60;;;;;;;10.16;88.58;99427.13;179993;1259;57713;-64
2023/12/30 02:51:19;;;;;;;0.90;0.70;;;;;;;10.10;88.42;99419.08;179879;1259;45935;-64
2023/12/30 02:55:22;;;;;;;1.00;0.90;;;;;;;10.06;88.42;99416.59;179852;1259;45115;-64
2023/12/30 02:59:26;;;;;;;1.30;1.00;;;;;;;9.99;88.31;99414.21;179987;1259;45898;-65
2023/12/30 03:03:40;;;;;;;1.40;0.60;;;;;;;9.97;88.66;99415.69;179884;1258;46116;-65
2023/12/30 03:07:43;;;;;;;0.70;0.60;;;;;;;9.96;88.19;99412.61;180073;1258;57540;-65
2023/12/30 03:11:47;;;;;;;0.70;0.60;;;;;;;10.04;88.01;99413.90;180139;1257;44653;-65
2023/12/30 03:15:56;;;;;;;1.20;0.70;;;;;;;10.14;87.77;99412.81;180040;1263;45958;-64
2023/12/30 03:20:03;;;;;;;0.90;0.60;;;;;;;10.21;87.44;99420.69;180011;1257;45487;-64
2023/12/30 03:24:07;;;;;;;2.00;1.20;;;;;;;10.29;86.48;99420.83;179809;1262;290491;-64
2023/12/30 03:28:10;;;;;;;2.30;0.90;;;;;;;10.42;85.03;99417.89;179997;1257;58187;-64
2023/12/30 03:32:15;;;;;;;1.00;0.60;;;;;;;10.56;85.01;99425.60;179995;1257;46252;-65
2023/12/30 03:36:18;;;;;;;2.60;0.70;;;;;;;10.60;84.29;99422.70;180116;1257;46517;-65
2023/12/30 03:40:22;;;;;;;0.60;0.30;;;;;;;10.67;83.34;99426.48;180115;1257;45893;-65
2023/12/30 03:44:28;;;;;;;3.20;0.60;;;;;;;10.78;82.83;99431.12;180025;1257;45970;-65
2023/12/30 03:48:32;;;;;;;1.10;0.50;;;;;;;10.86;82.85;99459.28;180122;1260;60213;-65
2023/12/30 03:52:36;;;;;;;0.50;0.10;;;;;;;10.43;91.27;99510.65;180117;1257;45919;-65
2023/12/30 03:56:41;;;;;;;1.30;0.20;;;;;;;10.08;96.86;99506.93;180099;1257;43524;-64
2023/12/30 04:00:44;;;;;;;0.90;0.60;;;;;;;9.71;99.73;99506.59;180052;1257;45884;-65
2023/12/30 04:04:48;;;;;;;2.10;0.50;;;;;;;9.54;100.00;99507.02;180186;1257;44768;-65
2023/12/30 04:08:51;;;;;;;0.10;0.10;;;;;;;9.41;100.00;99528.17;179962;1258;59223;-65
2023/12/30 04:12:55;;;;;;;0.60;0.30;;;;;;;9.23;100.00;99548.12;180041;1257;43843;-65
2023/12/30 04:16:58;;;;;;;1.00;0.20;;;;;;;9.06;100.00;99562.86;180066;1259;43632;-64
2023/12/30 04:21:02;;;;;;;0.60;0.30;;;;;;;9.08;100.00;99555.08;180085;1257;44558;-65
2023/12/30 04:25:06;;;;;;;1.20;0.40;;;;;;;8.97;100.00;99555.34;180030;1257;46133;-65
2023/12/30 04:29:11;;;;;;;1.90;0.30;;;;;;;8.94;100.00;99541.94;180147;1257;58163;-65
2023/12/30 04:33:14;;;;;;;3.40;1.50;;;;;;;8.94;100.00;99533.14;180087;1257;43813;-65
2023/12/30 04:37:20;;;;;;;6.20;0.80;;;;;;;8.96;100.00;99526.64;180046;1257;45993;-63
2023/12/30 04:41:25;;;;;;;1.70;0.50;;;;;;;8.90;100.00;99513.36;180063;1257;46117;-63
2023/12/30 04:45:29;;;;;;;4.10;0.60;;;;;;;8.92;100.00;99519.14;180191;1258;45941;-63
2023/12/30 04:49:32;;;;;;;5.20;1.40;;;;;;;8.98;100.00;99518.80;180221;1257;58083;-63
2023/12/30 04:53:36;;;;;;;0.80;0.50;;;;;;;9.04;100.00;99523.23;180114;1257;46098;-64
2023/12/30 04:57:41;;;;;;;0.90;0.30;;;;;;;9.10;100.00;99533.16;180146;1257;44922;-63
2023/12/30 05:01:46;;;;;;;1.10;0.30;;;;;;;9.11;100.00;99530.57;180150;1257;44714;-63
2023/12/30 05:05:51;;;;;;;1.50;0.30;;;;;;;9.05;100.00;99530.97;180180;1257;44526;-64
2023/12/30 05:09:54;;;;;;;0.30;0.30;;;;;;;8.90;100.00;99533.14;180020;1257;59060;-63
2023/12/30 05:13:58;;;;;;;1.20;0.50;;;;;;;8.76;100.00;99526.77;180024;1257;45922;-64
2023/12/30 05:18:08;;;;;;;0.60;0.40;;;;;;;8.69;100.00;99532.11;180142;1259;45893;-64
2023/12/30 05:22:11;;;;;;;0.80;0.30;;;;;;;8.64;100.00;99533.98;180078;1257;45112;-64
2023/12/30 05:26:15;;;;;;;0.70;0.60;;;;;;;8.62;100.00;99530.73;180029;1257;45872;-63
2023/12/30 05:30:18;;;;;;;2.20;1.10;;;;;;;8.57;100.00;99534.70;180153;1257;58521;-63
2023/12/30 05:34:22;;;;;;;1.10;0.40;;;;;;;8.54;100.00;99537.09;180150;1257;45428;-64
2023/12/30 05:38:25;;;;;;;1.70;1.10;;;;;;;8.50;100.00;99537.78;180086;1257;43915;-64
2023/12/30 05:42:30;;;;;;;0.50;0.50;;;;;;;8.50;100.00;99533.70;180110;1261;45225;-64
2023/12/30 05:46:35;;;;;;;1.10;0.60;;;;;;;8.56;100.00;99537.60;180224;1257;45942;-64
2023/12/30 05:50:39;;;;;;;1.30;0.70;;;;;;;8.61;100.00;99556.43;180148;1256;58471;-64
2023/12/30 05:54:46;;;;;;;0.70;0.70;;;;;;;8.67;100.00;99556.15;180180;1259;44948;-63
2023/12/30 05:58:54;;;;;;;1.60;0.50;;;;;;;8.82;100.00;99557.35;180093;1257;46009;-64
2023/12/30 06:02:57;;;;;;;0.80;0.50;;;;;;;8.97;100.00;99572.79;180065;1257;44704;-64
2023/12/30 06:07:01;;;;;;;0.70;0.60;;;;;;;9.04;100.00;99545.68;180123;1257;43530;-64
2023/12/30 06:11:05;;;;;;;0.30;0.20;;;;;;;9.11;100.00;99541.80;180057;1257;57315;-64
2023/12/30 06:15:08;;;;;;;1.80;0.60;;;;;;;9.01;100.00;99565.41;180068;1257;45884;-64
2023/12/30 06:19:13;;;;;;;1.70;0.60;;;;;;;8.94;100.00;99578.25;180155;1257;46101;-64
2023/12/30 06:23:20;;;;;;;0.80;0.50;;;;;;;8.86;100.00;99596.21;180282;1257;45078;-64
2023/12/30 06:27:24;;;;;;;4.30;1.00;;;;;;;8.85;100.00;99603.71;180129;1261;45958;-64
2023/12/30 06:31:27;;;;;;;0.80;0.60;;;;;;;8.92;100.00;99610.19;180202;1257;58190;-64
2023/12/30 06:35:31;;;;;;;3.00;2.70;;;;;;;8.94;100.00;99647.89;180145;1257;43724;-64
2023/12/30 06:39:34;;;;;;;4.80;4.30;;;;;;;8.13;100.00;99708.23;180231;1258;46005;-64
2023/12/30 06:43:38;;;;;;;1.70;1.00;;;;;;;7.52;100.00;99723.63;180066;1258;45917;-63
2023/12/30 06:47:42;;;;;;;0.30;0.30;;;;;;;7.15;100.00;99734.19;180026;1260;44729;-63
2023/12/30 06:51:46;;;;;;;5.20;4.70;;;;;;;6.96;100.00;99735.43;180015;1258;58681;-64
2023/12/30 06:55:51;;;;;;;6.70;6.00;;;;;;;6.79;100.00;99728.10;180148;1259;44931;-63
2023/12/30 06:59:55;;;;;;;19.90;11.90;;;;;;;6.75;100.00;99733.71;180038;1260;44641;-63
2023/12/30 07:03:59;;;;;;;11.20;6.80;;;;;;;6.77;100.00;99751.35;180095;1260;44627;-64
2023/12/30 07:08:06;;;;;;;1.80;0.80;;;;;;;6.73;100.00;99764.67;180150;1260;44956;-63
2023/12/30 07:12:12;;;;;;;2.50;2.30;;;;;;;6.66;100.00;99768.83;180137;1259;57902;-63
2023/12/30 07:16:16;;;;;;;0.50;0.50;;;;;;;6.63;100.00;99774.01;180096;1258;43920;-64
2023/12/30 07:20:21;;;;;;;0.80;0.30;;;;;;;6.69;100.00;99781.55;180147;1259;44594;-64
2023/12/30 07:24:25;;;;;;;0.70;0.40;;;;;;;6.69;100.00;99788.88;179956;1261;46082;-64
2023/12/30 07:28:30;;;;;;;4.60;1.00;;;;;;;6.66;100.00;99802.69;179978;1259;45877;-64
2023/12/30 07:32:35;;;;;;;0.90;0.60;;;;;;;6.67;100.00;99799.79;180230;1259;58966;-64
2023/12/30 07:36:40;;;;;;;0.90;0.70;;;;;;;6.63;100.00;99816.46;180029;1257;46007;-65
2023/12/30 07:40:44;;;;;;;0.50;0.40;;;;;;;6.66;100.00;99817.83;180224;1257;44321;-63
2023/12/30 07:44:56;;;;;;;1.20;0.80;;;;;;;6.68;100.00;99817.16;180334;1257;43943;-63
2023/12/30 07:48:59;;;;;;;2.30;0.60;;;;;;;6.83;100.00;99807.97;180173;1259;44737;-63
2023/12/30 07:53:05;;;;;;;1.30;0.30;;;;;;;6.91;100.00;99802.27;180191;1257;58439;-63
2023/12/30 07:57:08;;;;;;;2.30;0.40;;;;;;;6.93;100.00;99798.96;180245;1257;46140;-62
2023/12/30 08:01:21;;;;;;;0.50;0.30;;;;;;;7.04;100.00;99790.39;180183;1257;45252;-63
2023/12/30 08:05:25;;;;;;;0.20;0.10;;;;;;;7.17;100.00;99789.09;180162;1257;43695;-63
2023/12/30 08:09:28;;;;;;;0.80;0.50;;;;;;;7.31;100.00;99784.34;180183;1261;46028;-63
2023/12/30 08:13:31;;;;;;;1.20;0.60;;;;;;;7.36;100.00;99795.08;180281;1257;57043;-63
2023/12/30 08:17:35;;;;;;;0.50;0.30;;;;;;;7.39;100.00;99800.98;180097;1257;45273;-63
2023/12/30 08:21:38;;;;;;;3.50;0.70;;;;;;;7.39;100.00;99814.75;180260;1257;45037;-63
2023/12/30 08:25:42;;;;;;;1.90;0.40;;;;;;;7.48;100.00;99820.28;180281;1257;46019;-63
2023/12/30 08:29:45;;;;;;;1.20;0.50;;;;;;;7.60;100.00;99824.52;180302;1258;44554;-63
2023/12/30 08:33:51;;;;;;;1.20;0.80;;;;;;;7.67;100.00;99834.70;180231;1259;58254;-62
2023/12/30 08:38:08;;;;;;;;;;;;;;;7.73;100.00;99835.17;180262;1258;45894;-63
2023/12/30 08:42:11;;;;;;;0.60;0.30;;;;;;;7.78;100.00;99848.65;180313;1258;43414;-63
2023/12/30 08:46:15;;;;;;;0.60;0.30;;;;;;;7.86;100.00;99861.16;179068;1258;88532;-87
2023/12/30 08:50:20;;;;;;;5.40;0.50;;;;;;;7.95;100.00;99863.98;179962;1262;45870;-89
2023/12/30 08:54:23;;;;;;;1.10;0.80;;;;;;;7.97;100.00;99867.55;179044;1260;58137;-89
2023/12/30 08:58:26;;;;;;;1.50;0.90;;;;;;;7.98;100.00;99860.73;179003;1260;46054;-88
2023/12/30 09:02:30;;;;;;;1.20;0.40;;;;;;;8.02;100.00;99876.48;178359;1264;45569;-87
2023/12/30 09:06:33;;;;;;;5.50;1.20;;;;;;;8.08;100.00;99882.92;178109;1260;46442;-88
2023/12/30 09:10:38;;;;;;;0.90;0.40;;;;;;;8.12;100.00;99894.64;178074;1261;46146;-89
2023/12/30 09:14:42;;;;;;;3.60;0.80;;;;;;;8.13;100.00;99904.09;178607;1261;58349;-87
2023/12/30 09:18:46;;;;;;;0.40;0.30;;;;;;;8.20;100.00;99903.80;178931;1263;46162;-89
2023/12/30 09:22:50;;;;;;;1.50;0.40;;;;;;;8.21;100.00;99892.91;178153;1261;46137;-88
2023/12/30 09:26:53;;;;;;;0.60;0.60;;;;;;;8.26;100.00;99891.80;178181;1262;45988;-89
2023/12/30 09:30:57;;;;;;;2.20;0.60;;;;;;;8.28;100.00;99899.95;178166;1260;46036;-88
2023/12/30 09:35:02;;;;;;;1.70;0.80;;;;;;;8.28;100.00;99898.87;178353;1260;59312;-88
2023/12/30 09:39:10;;;;;;;5.20;1.50;;;;;;;8.35;100.00;99904.91;178166;1261;45801;-88
2023/12/30 09:43:20;;;;;;;2.70;1.10;;;;;;;8.40;100.00;99902.85;178531;1261;45952;-86
2023/12/30 09:47:25;;;;;;;1.40;1.00;;;;;;;8.52;100.00;99907.80;178025;1260;46510;-87
2023/12/30 09:51:31;;;;;;;0.90;0.40;;;;;;;8.68;100.00;99907.44;177946;1266;45952;-89
2023/12/30 09:55:35;;;;;;;3.80;1.40;;;;;;;8.77;100.00;99909.36;177759;1261;59872;-89
2023/12/30 09:59:40;;;;;;;1.90;0.80;;;;;;;8.93;100.00;99909.76;178042;1260;46093;-89
2023/12/30 10:03:44;;;;;;;4.90;1.30;;;;;;;9.01;100.00;99912.95;177980;1263;46105;-89
2023/12/30 10:07:48;;;;;;;2.00;1.70;;;;;;;9.13;100.00;99912.48;177992;1260;45933;-89
2023/12/30 10:11:52;;;;;;;2.40;1.20;;;;;;;9.21;100.00;99908.83;177808;1260;46567;-89
2023/12/30 10:16:02;;;;;;;1.20;0.90;;;;;;;9.26;100.00;99907.36;178994;1260;58024;-89
2023/12/30 10:20:08;;;;;;;3.00;1.50;;;;;;;9.36;100.00;99914.55;178206;1261;46057;-91
2023/12/30 10:24:14;;;;;;;4.10;1.40;;;;;;;9.41;100.00;99917.65;178205;1264;46184;-88
2023/12/30 10:28:19;;;;;;;3.90;1.50;;;;;;;9.46;100.00;99921.84;178762;1259;46002;-87
2023/12/30 10:32:23;;;;;;;2.00;1.30;;;;;;;9.55;100.00;99926.98;178511;1260;46246;-87
2023/12/30 10:36:30;;;;;;;3.10;1.70;;;;;;;9.62;100.00;99926.20;178526;1260;58222;-91
2023/12/30 10:40:33;;;;;;;7.40;2.90;;;;;;;9.69;100.00;99930.41;178866;1260;45840;-89
2023/12/30 10:44:37;;;;;;;3.40;2.10;;;;;;;9.78;100.00;99930.05;178455;1261;46130;-88
2023/12/30 10:49:03;;;;;;;3.20;2.20;;;;;;;9.88;100.00;99933.27;178001;1260;44441;-88
2023/12/30 10:53:20;;;;;;;2.30;1.50;;;;;;;10.00;100.00;99935.48;179863;1260;44062;-90
2023/12/30 10:57:28;;;;;;;2.50;1.30;;;;;;;10.02;100.00;99936.83;179140;1260;58797;-92
2023/12/30 11:01:42;;;;;;;1.20;0.90;;;;;;;10.03;100.00;99945.88;179901;1260;44585;-89
2023/12/30 11:06:21;;;;;;;3.80;1.10;;;;;;;10.06;100.00;99942.35;179661;1260;46159;-90
2023/12/30 11:10:28;;;;;;;2.90;1.50;;;;;;;10.06;100.00;99946.28;180061;1261;45937;-91
2023/12/30 11:14:36;;;;;;;3.80;1.60;;;;;;;10.03;100.00;99947.61;179576;1261;44834;-90
2023/12/30 11:18:53;;;;;;;1.90;1.10;;;;;;;9.96;99.94;99934.73;179527;1260;59587;-90
2023/12/30 11:22:59;;;;;;;7.40;2.10;;;;;;;9.90;97.78;99935.80;179555;1263;46114;-90
2023/12/30 11:27:10;;;;;;;;;;;;;;;9.89;97.40;99942.42;179445;1260;46007;-89
2023/12/30 11:31:13;;;;;;;3.60;2.00;;;;;;;9.68;91.99;99930.86;179141;1261;46292;-87
2023/12/30 11:35:21;;;;;;;5.70;3.40;;;;;;;9.68;92.63;99931.27;178361;1261;46025;-87
2023/12/30 11:39:31;;;;;;;3.60;1.80;;;;;;;9.60;93.14;99934.48;178206;1259;58573;-87
2023/12/30 11:43:34;;;;;;;7.80;1.70;;;;;;;9.69;93.51;99939.25;178530;1260;46071;-88
2023/12/30 11:47:38;;;;;;;3.30;1.10;;;;;;;9.68;94.22;99943.75;178516;1260;45983;-89
2023/12/30 11:51:55;;;;;;;1.60;1.00;;;;;;;9.68;95.11;99944.27;179585;1260;46022;-85
2023/12/30 11:56:11;;;;;;;2.10;1.70;;;;;;;9.74;95.56;99945.61;180093;1260;44693;-86
2023/12/30 12:00:16;;;;;;;4.70;2.10;;;;;;;9.80;97.04;99946.17;179442;1261;60305;-88
2023/12/30 12:04:20;;;;;;;4.40;1.50;;;;;;;9.82;97.60;99944.04;179572;1261;44249;-89
2023/12/30 12:08:24;;;;;;;3.30;1.20;;;;;;;9.83;97.55;99941.42;178969;1259;45507;-90
2023/12/30 12:12:36;;;;;;;3.00;2.10;;;;;;;9.83;97.36;99940.95;179030;1263;44790;-90
2023/12/30 12:16:41;;;;;;;2.00;1.00;;;;;;;9.82;97.24;99933.55;179137;1260;46049;-87
2023/12/30 12:20:46;;;;;;;2.40;1.40;;;;;;;9.82;97.82;99929.14;179348;1263;58144;-89
2023/12/30 12:24:49;;;;;;;2.90;1.40;;;;;;;9.82;97.68;99934.27;179139;1260;45933;-89
2023/12/30 12:28:54;;;;;;;1.90;1.30;;;;;;;9.81;97.85;99931.33;178980;1261;45132;-90
2023/12/30 12:32:57;;;;;;;3.30;1.40;;;;;;;9.80;97.84;99939.41;178932;1259;46000;-89
2023/12/30 12:37:02;;;;;;;4.10;2.40;;;;;;;9.78;97.76;99932.71;178539;1260;44666;-88
2023/12/30 12:41:06;;;;;;;3.60;1.60;;;;;;;9.74;96.71;99924.69;178920;1260;58243;-87
2023/12/30 12:45:10;;;;;;;4.60;1.70;;;;;;;9.74;95.97;99925.98;178689;1263;46069;-89
2023/12/30 12:49:17;;;;;;;5.20;2.50;;;;;;;9.72;95.37;99925.39;178984;1260;45943;-88
2023/12/30 12:53:23;;;;;;;3.60;1.40;;;;;;;9.72;95.38;99924.67;178840;1259;45876;-91
2023/12/30 12:57:27;;;;;;;3.40;1.60;;;;;;;9.70;95.77;99920.05;178659;1263;46043;-90
2023/12/30 13:01:35;;;;;;;4.90;1.10;;;;;;;9.69;95.78;99922.32;178150;1260;57958;-88
2023/12/30 13:05:38;;;;;;;3.60;1.50;;;;;;;9.64;96.51;99929.98;178746;1260;46011;-86
2023/12/30 13:10:12;;;;;;;2.50;1.30;;;;;;;9.58;96.86;99928.88;179085;1260;44604;-87
2023/12/30 13:14:19;;;;;;;4.60;1.20;;;;;;;9.57;97.50;99931.19;178180;1259;46012;-85
2023/12/30 13:18:26;;;;;;;3.60;1.40;;;;;;;9.55;97.67;99936.88;179027;1260;44698;-87
2023/12/30 13:22:36;;;;;;;3.10;1.20;;;;;;;9.51;97.34;99939.02;179348;1259;58895;-90
2023/12/30 13:26:49;;;;;;;4.10;2.40;;;;;;;9.53;97.36;99930.30;180999;1258;94410;-62
2023/12/30 13:30:53;;;;;;;5.00;1.70;;;;;;;9.58;98.13;99935.92;180744;1263;44946;-88
2023/12/30 13:35:05;;;;;;;3.50;1.30;;;;;;;9.60;98.37;99936.15;180554;1260;44956;-83
2023/12/30 13:39:18;;;;;;;3.50;1.20;;;;;;;9.58;98.35;99934.84;180470;1266;44669;-86
2023/12/30 13:43:26;;;;;;;4.80;1.00;;;;;;;9.59;98.32;99936.56;179961;1265;59534;-90
2023/12/30 13:51:44;;;;;;;3.40;1.30;;;;;;;9.45;100.00;99955.94;179488;1259;45886;-88
2023/12/30 13:55:48;;;;;;;6.80;1.50;;;;;;;9.33;100.00;99947.17;179658;1259;45983;-88
2023/12/30 13:59:55;;;;;;;4.50;1.70;;;;;;;9.28;100.00;99956.95;178963;1259;45922;-89
2023/12/30 14:04:03;;;;;;;3.30;1.50;;;;;;;9.31;100.00;99970.40;179671;1261;58524;-91
2023/12/30 14:08:54;;;;;;;10.30;2.70;;;;;;;9.29;100.00;99966.42;179203;1259;46091;-89
2023/12/30 14:12:39;;;;;;;3.10;1.40;;;;;;;9.23;100.00;99964.45;179203;1262;44144;-88
2023/12/30 14:16:44;;;;;;;3.50;1.70;;;;;;;9.19;100.00;99963.86;178894;1264;46071;-89
2023/12/30 14:20:49;;;;;;;2.20;1.30;;;;;;;9.19;100.00;99968.50;178976;1266;45090;-90
2023/12/30 14:24:52;;;;;;;3.10;1.60;;;;;;;9.21;100.00;99977.02;179213;1260;58295;-91
2023/12/30 14:28:56;;;;;;;3.80;2.00;;;;;;;9.21;100.00;99980.48;179274;1260;46000;-91
2023/12/30 14:33:01;;;;;;;5.70;1.60;;;;;;;9.20;100.00;99992.51;179376;1265;45984;-90
2023/12/30 14:37:06;;;;;;;3.30;2.20;;;;;;;9.17;100.00;99998.91;179427;1261;45983;-90
2023/12/30 14:41:11;;;;;;;2.80;1.80;;;;;;;9.11;100.00;99996.73;179013;1262;45940;-91
2023/12/30 14:45:20;;;;;;;5.10;2.50;;;;;;;9.10;100.00;99999.64;179107;1261;58436;-87
2023/12/30 14:49:29;;;;;;;6.70;3.30;;;;;;;9.06;100.00;99996.25;179312;1264;45979;-88
2023/12/30 14:53:35;;;;;;;5.60;3.50;;;;;;;9.05;100.00;99991.91;179071;1264;46115;-90
2023/12/30 14:57:48;;;;;;;7.70;3.50;;;;;;;9.01;100.00;99990.74;179128;1260;46118;-92
2023/12/30 15:01:53;;;;;;;;;;;;;;;8.95;100.00;99992.64;179400;1264;46012;-89
2023/12/30 15:06:06;;;;;;;5.80;2.70;;;;;;;8.88;100.00;99997.98;179470;1260;59037;-92
2023/12/30 15:10:13;;;;;;;3.40;2.30;;;;;;;8.80;100.00;99996.52;179718;1261;45903;-90
2023/12/30 15:14:21;;;;;;;3.10;2.20;;;;;;;8.72;100.00;99992.35;178937;1264;46149;-90
2023/12/30 15:18:25;;;;;;;8.30;4.00;;;;;;;8.66;100.00;99997.23;178750;1260;46101;-89
2023/12/30 15:22:29;;;;;;;5.50;3.00;;;;;;;8.56;100.00;100001.58;177520;1265;261911;-84
2023/12/30 15:26:33;;;;;;;8.50;3.10;;;;;;;8.52;100.00;100007.39;178357;1260;60058;-87
2023/12/30 15:30:36;;;;;;;4.30;2.90;;;;;;;8.45;100.00;100017.17;177994;1260;46160;-87
2023/12/30 15:34:39;;;;;;;11.30;4.50;;;;;;;8.37;100.00;100025.05;178469;1263;46222;-85
2023/12/30 15:38:43;;;;;;;4.90;2.40;;;;;;;8.30;100.00;100025.58;177920;1261;46242;-86
2023/12/30 15:42:52;;;;;;;6.90;5.30;;;;;;;8.23;100.00;100029.31;177433;1261;46155;-86
2023/12/30 15:46:56;;;;;;;11.60;5.30;;;;;;;8.15;100.00;100032.57;177329;1260;59488;-86
2023/12/30 15:51:01;;;;;;;7.10;4.50;;;;;;;8.08;100.00;100036.59;178625;1260;46110;-89
2023/12/30 15:55:06;;;;;;;8.90;4.60;;;;;;;8.07;100.00;100041.60;180216;1260;45932;-87
2023/12/30 15:59:16;;;;;;;9.20;4.20;;;;;;;8.04;100.00;100044.80;179773;1264;45974;-88
2023/12/30 16:03:19;;;;;;;10.30;5.00;;;;;;;8.03;100.00;100055.35;180082;1260;45973;-91
2023/12/30 16:07:24;;;;;;;7.10;3.30;;;;;;;8.01;100.00;100061.30;179539;1263;58228;-90
2023/12/30 16:11:28;;;;;;;15.30;5.40;;;;;;;7.99;100.00;100066.55;179680;1261;44514;-87
2023/12/30 16:15:31;;;;;;;11.00;6.10;;;;;;;7.96;100.00;100066.61;179534;1260;46134;-90
2023/12/30 16:19:46;;;;;;;7.00;4.00;;;;;;;7.93;100.00;100074.58;179391;1260;45931;-90
2023/12/30 16:23:51;;;;;;;5.40;3.10;;;;;;;7.88;100.00;100073.58;179724;1260;45173;-90
2023/12/30 16:27:57;;;;;;;4.00;2.80;;;;;;;7.85;100.00;100080.33;179687;1260;58255;-90
2023/12/30 16:32:01;;;;;;;5.10;2.30;;;;;;;7.83;100.00;100081.71;179425;1261;44676;-90
2023/12/30 16:36:12;;;;;;;4.60;2.50;;;;;;;7.83;100.00;100075.55;179858;1260;46105;-91
2023/12/30 16:40:16;;;;;;;3.80;2.00;;;;;;;7.80;100.00;100076.98;178855;1260;46136;-87
2023/12/30 16:44:19;;;;;;;6.20;2.40;;;;;;;7.73;100.00;100080.48;178682;1260;46080;-90
2023/12/30 16:48:23;;;;;;;9.80;2.60;;;;;;;7.69;100.00;100080.77;178608;1261;60287;-91
2023/12/30 16:52:27;;;;;;;3.10;2.10;;;;;;;7.60;100.00;100080.52;178846;1260;46076;-89
2023/12/30 16:56:32;;;;;;;7.90;2.40;;;;;;;7.52;100.00;100088.13;179106;1264;44785;-91
2023/12/30 17:00:36;;;;;;;3.70;1.70;;;;;;;7.43;100.00;100081.92;178544;1260;44733;-91
2023/12/30 17:04:39;;;;;;;4.00;1.60;;;;;;;7.31;100.00;100081.89;178789;1263;44836;-91
2023/12/30 17:08:43;;;;;;;3.40;1.80;;;;;;;7.30;100.00;100084.45;178498;1263;59523;-90
2023/12/30 17:12:47;;;;;;;5.40;3.00;;;;;;;7.27;100.00;100090.31;178173;1260;46020;-91
2023/12/30 17:16:50;;;;;;;4.90;2.60;;;;;;;7.25;100.00;100090.09;178174;1260;46342;-84
2023/12/30 17:20:54;;;;;;;6.10;3.10;;;;;;;7.22;100.00;100094.67;178256;1260;46122;-87
2023/12/30 17:25:02;;;;;;;9.40;3.10;;;;;;;7.20;100.00;100086.17;178649;1260;44794;-88
2023/12/30 17:29:05;;;;;;;8.40;3.60;;;;;;;7.17;100.00;100087.14;178758;1259;59454;-90
2023/12/30 17:33:08;;;;;;;3.50;2.20;;;;;;;7.10;100.00;100089.54;177969;1260;46246;-89
2023/12/30 17:37:13;;;;;;;2.00;1.80;;;;;;;7.09;100.00;100086.09;177853;1264;46167;-88
2023/12/30 17:41:17;;;;;;;5.50;2.30;;;;;;;7.08;100.00;100087.43;178140;1260;45968;-88
2023/12/30 17:45:20;;;;;;;6.60;4.30;;;;;;;7.06;100.00;100088.57;178663;1260;46071;-89
2023/12/30 17:49:23;;;;;;;14.20;5.80;;;;;;;7.10;100.00;100090.95;178333;1259;59627;-89
2023/12/30 17:53:27;;;;;;;8.80;5.60;;;;;;;7.12;100.00;100093.81;177605;1261;46133;-89
2023/12/30 17:57:31;;;;;;;8.20;5.10;;;;;;;7.09;100.00;100105.31;177676;1260;46010;-89
2023/12/30 18:01:35;;;;;;;12.20;5.70;;;;;;;7.07;100.00;100109.38;177818;1259;45949;-88
2023/12/30 18:05:38;;;;;;;18.10;10.20;;;;;;;7.02;100.00;100105.08;178419;1260;46044;-89
2023/12/30 18:09:42;;;;;;;15.50;9.00;;;;;;;6.98;100.00;100111.20;178226;1260;58502;-88
2023/12/30 18:13:49;;;;;;;13.50;6.70;;;;;;;6.88;100.00;100125.99;178827;1259;46168;-89
2023/12/30 18:17:53;;;;;;;14.40;6.60;;;;;;;6.78;100.00;100127.36;178351;1259;45973;-89
2023/12/30 18:21:58;;;;;;;15.50;10.40;;;;;;;6.73;100.00;100128.60;178294;1259;45969;-89
2023/12/30 18:26:09;;;;;;;11.10;7.20;;;;;;;6.74;100.00;100131.84;178281;1260;46638;-88
2023/12/30 18:30:13;;;;;;;6.90;3.80;;;;;;;6.78;100.00;100138.85;177883;1260;58051;-89
2023/12/30 18:34:16;;;;;;;6.60;2.70;;;;;;;6.81;100.00;100142.33;177853;1260;46054;-87
2023/12/30 18:38:20;;;;;;;5.90;2.10;;;;;;;6.81;100.00;100145.64;177916;1260;46160;-89
2023/12/30 18:42:23;;;;;;;3.00;2.20;;;;;;;6.79;100.00;100143.02;177747;1261;46056;-89
2023/12/30 18:46:27;;;;;;;3.70;2.10;;;;;;;6.82;100.00;100145.21;177977;1259;46028;-89
2023/12/30 18:50:32;;;;;;;9.70;4.20;;;;;;;6.83;100.00;100146.55;177916;1259;60351;-90
2023/12/30 18:54:38;;;;;;;6.20;4.60;;;;;;;6.83;100.00;100145.89;177848;1259;44291;-89
2023/12/30 18:58:41;;;;;;;11.80;6.20;;;;;;;6.82;100.00;100145.05;177923;1260;46099;-89
2023/12/30 19:02:49;;;;;;;13.70;8.90;;;;;;;6.80;100.00;100142.38;177800;1260;46124;-89
2023/12/30 19:06:52;;;;;;;10.80;7.70;;;;;;;6.85;100.00;100141.70;178136;1262;46005;-90